sensor_id;sensor_type;location;lat;lon;timestamp;P1;durP1;ratioP1;P2;durP2;ratioP2
68800;SDS011;55784;50.734;7.086;2023-08-17T00:01:40;18.55;;;10.70;;
68800;SDS011;55784;50.734;7.086;2023-08-17T00:04:05;20.73;;;11.40;;
68800;SDS011;55784;50.734;7.086;2023-08-17T00:06:31;19.52;;;10.77;;
68800;SDS011;55784;50.734;7.086;2023-08-17T00:08:56;18.97;;;10.77;;
68800;SDS011;55784;50.734;7.086;2023-08-17T00:11:21;21.30;;;10.60;;
68800;SDS011;55784;50.734;7.086;2023-08-17T00:13:47;18.90;;;10.23;;
68800;SDS011;55784;50.734;7.086;2023-08-17T00:16:12;18.97;;;10.60;;
68800;SDS011;55784;50.734;7.086;2023-08-17T00:18:37;18.83;;;10.30;;
68800;SDS011;55784;50.734;7.086;2023-08-17T00:21:03;16.80;;;10.30;;
68800;SDS011;55784;50.734;7.086;2023-08-17T00:23:28;20.42;;;11.20;;
68800;SDS011;55784;50.734;7.086;2023-08-17T00:25:54;19.20;;;10.07;;
68800;SDS011;55784;50.734;7.086;2023-08-17T00:28:19;18.80;;;10.47;;
68800;SDS011;55784;50.734;7.086;2023-08-17T00:30:44;18.60;;;10.30;;
68800;SDS011;55784;50.734;7.086;2023-08-17T00:33:10;18.97;;;10.90;;
68800;SDS011;55784;50.734;7.086;2023-08-17T00:35:35;19.40;;;10.30;;
68800;SDS011;55784;50.734;7.086;2023-08-17T00:38:00;18.53;;;9.57;;
68800;SDS011;55784;50.734;7.086;2023-08-17T00:40:25;18.93;;;10.57;;
68800;SDS011;55784;50.734;7.086;2023-08-17T00:42:51;19.57;;;10.33;;
68800;SDS011;55784;50.734;7.086;2023-08-17T00:45:17;18.70;;;10.27;;
68800;SDS011;55784;50.734;7.086;2023-08-17T00:47:43;19.83;;;9.80;;
68800;SDS011;55784;50.734;7.086;2023-08-17T00:50:08;17.73;;;10.13;;
68800;SDS011;55784;50.734;7.086;2023-08-17T00:52:35;17.30;;;9.35;;
68800;SDS011;55784;50.734;7.086;2023-08-17T00:55:00;19.57;;;10.60;;
68800;SDS011;55784;50.734;7.086;2023-08-17T00:57:27;18.23;;;9.93;;
68800;SDS011;55784;50.734;7.086;2023-08-17T00:59:54;18.30;;;10.65;;
68800;SDS011;55784;50.734;7.086;2023-08-17T01:02:20;18.73;;;11.43;;
68800;SDS011;55784;50.734;7.086;2023-08-17T01:04:45;18.70;;;10.13;;
68800;SDS011;55784;50.734;7.086;2023-08-17T01:07:11;18.33;;;10.20;;
68800;SDS011;55784;50.734;7.086;2023-08-17T01:09:37;17.20;;;10.50;;
68800;SDS011;55784;50.734;7.086;2023-08-17T01:12:13;18.53;;;10.13;;
68800;SDS011;55784;50.734;7.086;2023-08-17T01:17:33;20.25;;;10.65;;
68800;SDS011;55784;50.734;7.086;2023-08-17T01:20:05;18.75;;;10.15;;
68800;SDS011;55784;50.734;7.086;2023-08-17T01:22:34;18.55;;;9.52;;
68800;SDS011;55784;50.734;7.086;2023-08-17T01:25:01;17.20;;;9.20;;
68800;SDS011;55784;50.734;7.086;2023-08-17T01:27:33;18.63;;;9.93;;
68800;SDS011;55784;50.734;7.086;2023-08-17T01:30:08;17.50;;;9.93;;
68800;SDS011;55784;50.734;7.086;2023-08-17T01:32:37;17.17;;;9.67;;
68800;SDS011;55784;50.734;7.086;2023-08-17T01:35:11;19.52;;;10.30;;
68800;SDS011;55784;50.734;7.086;2023-08-17T01:37:45;18.48;;;10.52;;
68800;SDS011;55784;50.734;7.086;2023-08-17T01:40:10;18.30;;;10.50;;
68800;SDS011;55784;50.734;7.086;2023-08-17T01:42:38;18.85;;;10.75;;
68800;SDS011;55784;50.734;7.086;2023-08-17T01:45:04;20.35;;;11.13;;
68800;SDS011;55784;50.734;7.086;2023-08-17T01:47:30;19.77;;;11.20;;
68800;SDS011;55784;50.734;7.086;2023-08-17T01:49:56;18.53;;;11.07;;
68800;SDS011;55784;50.734;7.086;2023-08-17T01:52:25;20.80;;;11.18;;
68800;SDS011;55784;50.734;7.086;2023-08-17T01:54:54;19.48;;;10.32;;
68800;SDS011;55784;50.734;7.086;2023-08-17T01:57:19;18.20;;;9.53;;
68800;SDS011;55784;50.734;7.086;2023-08-17T01:59:45;19.30;;;10.37;;
68800;SDS011;55784;50.734;7.086;2023-08-17T02:02:10;20.65;;;10.43;;
68800;SDS011;55784;50.734;7.086;2023-08-17T02:04:36;18.80;;;10.17;;
68800;SDS011;55784;50.734;7.086;2023-08-17T02:07:02;18.10;;;9.88;;
68800;SDS011;55784;50.734;7.086;2023-08-17T02:09:28;19.10;;;11.07;;
68800;SDS011;55784;50.734;7.086;2023-08-17T02:11:53;18.87;;;10.40;;
68800;SDS011;55784;50.734;7.086;2023-08-17T02:14:18;16.97;;;9.80;;
68800;SDS011;55784;50.734;7.086;2023-08-17T02:16:43;17.67;;;9.50;;
68800;SDS011;55784;50.734;7.086;2023-08-17T02:19:09;17.60;;;10.13;;
68800;SDS011;55784;50.734;7.086;2023-08-17T02:21:34;17.73;;;9.13;;
68800;SDS011;55784;50.734;7.086;2023-08-17T02:23:59;20.83;;;9.73;;
68800;SDS011;55784;50.734;7.086;2023-08-17T02:26:24;17.50;;;9.70;;
68800;SDS011;55784;50.734;7.086;2023-08-17T02:28:50;16.63;;;8.40;;
68800;SDS011;55784;50.734;7.086;2023-08-17T02:31:15;17.77;;;9.03;;
68800;SDS011;55784;50.734;7.086;2023-08-17T02:33:40;17.97;;;8.97;;
68800;SDS011;55784;50.734;7.086;2023-08-17T02:36:06;17.97;;;9.73;;
68800;SDS011;55784;50.734;7.086;2023-08-17T02:38:31;17.00;;;9.20;;
68800;SDS011;55784;50.734;7.086;2023-08-17T02:40:56;16.47;;;8.57;;
68800;SDS011;55784;50.734;7.086;2023-08-17T02:43:21;16.90;;;9.00;;
68800;SDS011;55784;50.734;7.086;2023-08-17T02:45:52;18.07;;;9.37;;
68800;SDS011;55784;50.734;7.086;2023-08-17T02:48:18;17.75;;;9.32;;
68800;SDS011;55784;50.734;7.086;2023-08-17T02:50:43;16.67;;;8.90;;
68800;SDS011;55784;50.734;7.086;2023-08-17T02:53:09;19.23;;;9.15;;
68800;SDS011;55784;50.734;7.086;2023-08-17T02:55:34;17.57;;;8.90;;
68800;SDS011;55784;50.734;7.086;2023-08-17T02:58:00;16.40;;;8.80;;
68800;SDS011;55784;50.734;7.086;2023-08-17T03:00:25;15.93;;;7.80;;
68800;SDS011;55784;50.734;7.086;2023-08-17T03:02:50;17.70;;;8.98;;
68800;SDS011;55784;50.734;7.086;2023-08-17T03:05:16;16.00;;;8.37;;
68800;SDS011;55784;50.734;7.086;2023-08-17T03:07:41;16.40;;;8.27;;
68800;SDS011;55784;50.734;7.086;2023-08-17T03:10:06;18.23;;;8.13;;
68800;SDS011;55784;50.734;7.086;2023-08-17T03:12:32;15.87;;;8.60;;
68800;SDS011;55784;50.734;7.086;2023-08-17T03:14:57;15.93;;;8.37;;
68800;SDS011;55784;50.734;7.086;2023-08-17T03:17:23;16.37;;;8.20;;
68800;SDS011;55784;50.734;7.086;2023-08-17T03:19:48;14.50;;;8.60;;
68800;SDS011;55784;50.734;7.086;2023-08-17T03:22:13;15.20;;;8.43;;
68800;SDS011;55784;50.734;7.086;2023-08-17T03:24:39;15.80;;;7.70;;
68800;SDS011;55784;50.734;7.086;2023-08-17T03:27:04;15.77;;;7.93;;
68800;SDS011;55784;50.734;7.086;2023-08-17T03:29:29;16.27;;;8.53;;
68800;SDS011;55784;50.734;7.086;2023-08-17T03:31:55;15.93;;;8.43;;
68800;SDS011;55784;50.734;7.086;2023-08-17T03:34:20;16.20;;;8.87;;
68800;SDS011;55784;50.734;7.086;2023-08-17T03:36:45;16.60;;;8.60;;
68800;SDS011;55784;50.734;7.086;2023-08-17T03:39:11;18.20;;;8.97;;
68800;SDS011;55784;50.734;7.086;2023-08-17T03:41:36;16.83;;;9.17;;
68800;SDS011;55784;50.734;7.086;2023-08-17T03:44:02;18.67;;;9.10;;
68800;SDS011;55784;50.734;7.086;2023-08-17T03:46:28;21.10;;;9.60;;
68800;SDS011;55784;50.734;7.086;2023-08-17T03:48:54;17.90;;;9.57;;
68800;SDS011;55784;50.734;7.086;2023-08-17T03:51:19;18.03;;;8.90;;
68800;SDS011;55784;50.734;7.086;2023-08-17T03:53:44;16.67;;;9.03;;
68800;SDS011;55784;50.734;7.086;2023-08-17T03:56:10;18.97;;;9.20;;
68800;SDS011;55784;50.734;7.086;2023-08-17T03:58:35;19.20;;;9.07;;
68800;SDS011;55784;50.734;7.086;2023-08-17T04:01:00;16.33;;;8.60;;
68800;SDS011;55784;50.734;7.086;2023-08-17T04:03:26;18.80;;;9.48;;
68800;SDS011;55784;50.734;7.086;2023-08-17T04:05:52;15.67;;;8.57;;
68800;SDS011;55784;50.734;7.086;2023-08-17T04:08:17;16.43;;;8.10;;
68800;SDS011;55784;50.734;7.086;2023-08-17T04:10:42;14.93;;;8.40;;
68800;SDS011;55784;50.734;7.086;2023-08-17T04:13:08;16.33;;;8.33;;
68800;SDS011;55784;50.734;7.086;2023-08-17T04:15:33;15.83;;;7.90;;
68800;SDS011;55784;50.734;7.086;2023-08-17T04:17:59;16.57;;;7.93;;
68800;SDS011;55784;50.734;7.086;2023-08-17T04:20:24;18.50;;;8.33;;
68800;SDS011;55784;50.734;7.086;2023-08-17T04:22:50;15.60;;;8.57;;
68800;SDS011;55784;50.734;7.086;2023-08-17T04:25:16;15.00;;;8.03;;
68800;SDS011;55784;50.734;7.086;2023-08-17T04:27:41;17.95;;;8.75;;
68800;SDS011;55784;50.734;7.086;2023-08-17T04:30:06;17.13;;;8.43;;
68800;SDS011;55784;50.734;7.086;2023-08-17T04:32:32;16.40;;;8.48;;
68800;SDS011;55784;50.734;7.086;2023-08-17T04:34:58;19.40;;;9.00;;
68800;SDS011;55784;50.734;7.086;2023-08-17T04:37:24;16.63;;;9.30;;
68800;SDS011;55784;50.734;7.086;2023-08-17T04:39:49;18.45;;;9.40;;
68800;SDS011;55784;50.734;7.086;2023-08-17T04:42:14;21.23;;;10.07;;
68800;SDS011;55784;50.734;7.086;2023-08-17T04:44:40;16.97;;;9.20;;
68800;SDS011;55784;50.734;7.086;2023-08-17T04:47:05;16.77;;;9.27;;
68800;SDS011;55784;50.734;7.086;2023-08-17T04:49:30;19.07;;;8.70;;
68800;SDS011;55784;50.734;7.086;2023-08-17T04:51:56;16.80;;;9.20;;
68800;SDS011;55784;50.734;7.086;2023-08-17T04:54:21;19.43;;;9.57;;
68800;SDS011;55784;50.734;7.086;2023-08-17T04:56:47;17.37;;;9.07;;
68800;SDS011;55784;50.734;7.086;2023-08-17T04:59:12;17.83;;;9.40;;
68800;SDS011;55784;50.734;7.086;2023-08-17T05:01:37;15.27;;;8.80;;
68800;SDS011;55784;50.734;7.086;2023-08-17T05:04:03;16.60;;;8.75;;
68800;SDS011;55784;50.734;7.086;2023-08-17T05:06:29;15.40;;;8.77;;
68800;SDS011;55784;50.734;7.086;2023-08-17T05:08:55;14.77;;;8.63;;
68800;SDS011;55784;50.734;7.086;2023-08-17T05:11:21;13.30;;;7.97;;
68800;SDS011;55784;50.734;7.086;2023-08-17T05:13:46;13.45;;;7.80;;
68800;SDS011;55784;50.734;7.086;2023-08-17T05:16:12;13.70;;;6.83;;
68800;SDS011;55784;50.734;7.086;2023-08-17T05:18:37;12.97;;;7.03;;
68800;SDS011;55784;50.734;7.086;2023-08-17T05:21:02;13.50;;;6.53;;
68800;SDS011;55784;50.734;7.086;2023-08-17T05:23:28;11.57;;;6.67;;
68800;SDS011;55784;50.734;7.086;2023-08-17T05:25:53;14.33;;;6.70;;
68800;SDS011;55784;50.734;7.086;2023-08-17T05:28:18;14.10;;;6.97;;
68800;SDS011;55784;50.734;7.086;2023-08-17T05:30:44;13.83;;;6.73;;
68800;SDS011;55784;50.734;7.086;2023-08-17T05:33:09;15.37;;;7.27;;
68800;SDS011;55784;50.734;7.086;2023-08-17T05:35:35;12.17;;;6.50;;
68800;SDS011;55784;50.734;7.086;2023-08-17T05:38:00;14.90;;;6.43;;
68800;SDS011;55784;50.734;7.086;2023-08-17T05:40:26;11.65;;;6.55;;
68800;SDS011;55784;50.734;7.086;2023-08-17T05:42:54;13.80;;;6.90;;
68800;SDS011;55784;50.734;7.086;2023-08-17T05:45:19;13.47;;;6.50;;
68800;SDS011;55784;50.734;7.086;2023-08-17T05:47:44;12.83;;;7.30;;
68800;SDS011;55784;50.734;7.086;2023-08-17T05:50:10;13.43;;;7.20;;
68800;SDS011;55784;50.734;7.086;2023-08-17T05:52:35;15.30;;;7.17;;
68800;SDS011;55784;50.734;7.086;2023-08-17T05:55:01;15.70;;;7.20;;
68800;SDS011;55784;50.734;7.086;2023-08-17T05:57:26;14.85;;;8.05;;
68800;SDS011;55784;50.734;7.086;2023-08-17T05:59:52;13.17;;;7.47;;
68800;SDS011;55784;50.734;7.086;2023-08-17T06:02:17;16.13;;;7.37;;
68800;SDS011;55784;50.734;7.086;2023-08-17T06:04:42;14.50;;;7.40;;
68800;SDS011;55784;50.734;7.086;2023-08-17T06:07:08;14.20;;;7.53;;
68800;SDS011;55784;50.734;7.086;2023-08-17T06:09:33;12.80;;;7.23;;
68800;SDS011;55784;50.734;7.086;2023-08-17T06:11:58;13.87;;;7.37;;
68800;SDS011;55784;50.734;7.086;2023-08-17T06:14:24;14.50;;;7.87;;
68800;SDS011;55784;50.734;7.086;2023-08-17T06:16:49;16.13;;;7.88;;
68800;SDS011;55784;50.734;7.086;2023-08-17T06:19:14;14.57;;;7.60;;
68800;SDS011;55784;50.734;7.086;2023-08-17T06:21:40;15.67;;;7.43;;
68800;SDS011;55784;50.734;7.086;2023-08-17T06:24:05;12.43;;;7.03;;
68800;SDS011;55784;50.734;7.086;2023-08-17T06:26:32;12.77;;;6.80;;
68800;SDS011;55784;50.734;7.086;2023-08-17T06:28:57;16.45;;;7.15;;
68800;SDS011;55784;50.734;7.086;2023-08-17T06:31:23;15.23;;;7.13;;
68800;SDS011;55784;50.734;7.086;2023-08-17T06:33:52;13.20;;;7.20;;
68800;SDS011;55784;50.734;7.086;2023-08-17T06:36:20;14.18;;;7.70;;
68800;SDS011;55784;50.734;7.086;2023-08-17T06:38:46;14.43;;;7.40;;
68800;SDS011;55784;50.734;7.086;2023-08-17T06:41:11;12.00;;;6.73;;
68800;SDS011;55784;50.734;7.086;2023-08-17T06:43:36;13.10;;;6.67;;
68800;SDS011;55784;50.734;7.086;2023-08-17T06:46:02;14.00;;;7.07;;
68800;SDS011;55784;50.734;7.086;2023-08-17T06:48:27;14.70;;;7.67;;
68800;SDS011;55784;50.734;7.086;2023-08-17T06:50:53;12.37;;;6.67;;
68800;SDS011;55784;50.734;7.086;2023-08-17T06:53:18;12.88;;;7.32;;
68800;SDS011;55784;50.734;7.086;2023-08-17T06:55:44;12.50;;;6.50;;
68800;SDS011;55784;50.734;7.086;2023-08-17T06:58:09;13.83;;;6.47;;
68800;SDS011;55784;50.734;7.086;2023-08-17T07:00:34;12.13;;;6.47;;
68800;SDS011;55784;50.734;7.086;2023-08-17T07:03:00;14.15;;;6.65;;
68800;SDS011;55784;50.734;7.086;2023-08-17T07:05:26;12.17;;;6.40;;
68800;SDS011;55784;50.734;7.086;2023-08-17T07:07:51;13.35;;;6.70;;
68800;SDS011;55784;50.734;7.086;2023-08-17T07:10:17;11.97;;;6.23;;
68800;SDS011;55784;50.734;7.086;2023-08-17T07:12:43;11.82;;;6.30;;
68800;SDS011;55784;50.734;7.086;2023-08-17T07:15:09;13.30;;;6.90;;
68800;SDS011;55784;50.734;7.086;2023-08-17T07:17:35;12.95;;;6.68;;
68800;SDS011;55784;50.734;7.086;2023-08-17T07:20:01;13.85;;;7.03;;
68800;SDS011;55784;50.734;7.086;2023-08-17T07:22:27;14.38;;;7.00;;
68800;SDS011;55784;50.734;7.086;2023-08-17T07:24:52;12.83;;;7.30;;
68800;SDS011;55784;50.734;7.086;2023-08-17T07:27:18;12.53;;;6.87;;
68800;SDS011;55784;50.734;7.086;2023-08-17T07:29:43;13.77;;;6.07;;
68800;SDS011;55784;50.734;7.086;2023-08-17T07:32:09;12.67;;;7.07;;
68800;SDS011;55784;50.734;7.086;2023-08-17T07:34:35;13.27;;;6.80;;
68800;SDS011;55784;50.734;7.086;2023-08-17T07:37:01;12.87;;;7.17;;
68800;SDS011;55784;50.734;7.086;2023-08-17T07:39:26;12.48;;;6.90;;
68800;SDS011;55784;50.734;7.086;2023-08-17T07:41:52;14.43;;;7.63;;
68800;SDS011;55784;50.734;7.086;2023-08-17T07:44:17;13.83;;;7.97;;
68800;SDS011;55784;50.734;7.086;2023-08-17T07:46:42;12.07;;;6.90;;
68800;SDS011;55784;50.734;7.086;2023-08-17T07:49:08;13.17;;;7.43;;
68800;SDS011;55784;50.734;7.086;2023-08-17T07:51:33;15.53;;;8.30;;
68800;SDS011;55784;50.734;7.086;2023-08-17T07:54:00;14.45;;;8.30;;
68800;SDS011;55784;50.734;7.086;2023-08-17T07:56:25;15.35;;;8.15;;
68800;SDS011;55784;50.734;7.086;2023-08-17T07:58:52;16.00;;;9.10;;
68800;SDS011;55784;50.734;7.086;2023-08-17T08:01:18;18.65;;;10.50;;
68800;SDS011;55784;50.734;7.086;2023-08-17T08:03:44;13.87;;;8.70;;
68800;SDS011;55784;50.734;7.086;2023-08-17T08:06:09;16.43;;;10.03;;
68800;SDS011;55784;50.734;7.086;2023-08-17T08:08:34;17.47;;;10.37;;
68800;SDS011;55784;50.734;7.086;2023-08-17T08:10:59;21.10;;;11.63;;
68800;SDS011;55784;50.734;7.086;2023-08-17T08:13:25;18.13;;;10.65;;
68800;SDS011;55784;50.734;7.086;2023-08-17T08:15:50;21.73;;;12.17;;
68800;SDS011;55784;50.734;7.086;2023-08-17T08:18:16;22.43;;;13.17;;
68800;SDS011;55784;50.734;7.086;2023-08-17T08:20:41;20.37;;;11.50;;
68800;SDS011;55784;50.734;7.086;2023-08-17T08:23:08;24.35;;;12.70;;
68800;SDS011;55784;50.734;7.086;2023-08-17T08:25:33;23.67;;;12.50;;
68800;SDS011;55784;50.734;7.086;2023-08-17T08:27:58;23.53;;;13.00;;
68800;SDS011;55784;50.734;7.086;2023-08-17T08:30:24;23.03;;;13.13;;
68800;SDS011;55784;50.734;7.086;2023-08-17T08:32:49;21.73;;;13.10;;
68800;SDS011;55784;50.734;7.086;2023-08-17T08:35:15;22.50;;;13.00;;
68800;SDS011;55784;50.734;7.086;2023-08-17T08:37:40;21.70;;;12.83;;
68800;SDS011;55784;50.734;7.086;2023-08-17T08:40:06;24.07;;;13.17;;
68800;SDS011;55784;50.734;7.086;2023-08-17T08:42:37;20.90;;;11.17;;
68800;SDS011;55784;50.734;7.086;2023-08-17T08:45:03;21.85;;;12.00;;
68800;SDS011;55784;50.734;7.086;2023-08-17T08:47:29;20.83;;;12.30;;
68800;SDS011;55784;50.734;7.086;2023-08-17T08:49:59;23.65;;;11.70;;
68800;SDS011;55784;50.734;7.086;2023-08-17T08:52:32;21.65;;;12.38;;
68800;SDS011;55784;50.734;7.086;2023-08-17T08:55:09;22.67;;;12.30;;
68800;SDS011;55784;50.734;7.086;2023-08-17T08:57:46;18.63;;;11.60;;
68800;SDS011;55784;50.734;7.086;2023-08-17T09:00:13;21.88;;;13.32;;
68800;SDS011;55784;50.734;7.086;2023-08-17T09:02:39;22.92;;;13.98;;
68800;SDS011;55784;50.734;7.086;2023-08-17T09:05:06;20.33;;;12.10;;
68800;SDS011;55784;50.734;7.086;2023-08-17T09:07:33;26.90;;;14.60;;
68800;SDS011;55784;50.734;7.086;2023-08-17T09:10:01;25.05;;;13.95;;
68800;SDS011;55784;50.734;7.086;2023-08-17T09:12:28;29.30;;;15.45;;
68800;SDS011;55784;50.734;7.086;2023-08-17T09:14:54;26.95;;;15.23;;
68800;SDS011;55784;50.734;7.086;2023-08-17T09:17:23;25.33;;;14.03;;
68800;SDS011;55784;50.734;7.086;2023-08-17T09:19:52;24.27;;;14.05;;
68800;SDS011;55784;50.734;7.086;2023-08-17T09:22:24;20.57;;;12.10;;
68800;SDS011;55784;50.734;7.086;2023-08-17T09:25:01;22.90;;;12.85;;
68800;SDS011;55784;50.734;7.086;2023-08-17T09:27:26;22.77;;;13.40;;
68800;SDS011;55784;50.734;7.086;2023-08-17T09:29:51;19.77;;;11.90;;
68800;SDS011;55784;50.734;7.086;2023-08-17T09:32:17;20.10;;;11.00;;
68800;SDS011;55784;50.734;7.086;2023-08-17T09:34:43;19.13;;;10.93;;
68800;SDS011;55784;50.734;7.086;2023-08-17T09:37:09;23.48;;;13.93;;
68800;SDS011;55784;50.734;7.086;2023-08-17T09:39:37;28.10;;;15.57;;
68800;SDS011;55784;50.734;7.086;2023-08-17T09:42:02;28.85;;;17.55;;
68800;SDS011;55784;50.734;7.086;2023-08-17T09:44:28;25.17;;;15.17;;
68800;SDS011;55784;50.734;7.086;2023-08-17T09:46:56;28.00;;;16.10;;
68800;SDS011;55784;50.734;7.086;2023-08-17T09:49:23;30.77;;;16.33;;
68800;SDS011;55784;50.734;7.086;2023-08-17T09:51:49;31.02;;;17.35;;
68800;SDS011;55784;50.734;7.086;2023-08-17T09:54:21;27.42;;;15.40;;
68800;SDS011;55784;50.734;7.086;2023-08-17T09:56:48;28.37;;;16.07;;
68800;SDS011;55784;50.734;7.086;2023-08-17T09:59:16;26.65;;;15.48;;
68800;SDS011;55784;50.734;7.086;2023-08-17T10:01:41;30.13;;;15.87;;
68800;SDS011;55784;50.734;7.086;2023-08-17T10:04:08;32.40;;;15.90;;
68800;SDS011;55784;50.734;7.086;2023-08-17T10:06:34;26.15;;;14.43;;
68800;SDS011;55784;50.734;7.086;2023-08-17T10:09:02;25.77;;;14.10;;
68800;SDS011;55784;50.734;7.086;2023-08-17T10:11:28;24.42;;;13.52;;
68800;SDS011;55784;50.734;7.086;2023-08-17T10:13:59;23.60;;;12.73;;
68800;SDS011;55784;50.734;7.086;2023-08-17T10:16:49;24.77;;;13.40;;
68800;SDS011;55784;50.734;7.086;2023-08-17T10:21:48;29.20;;;16.10;;
68800;SDS011;55784;50.734;7.086;2023-08-17T10:24:35;24.00;;;13.38;;
68800;SDS011;55784;50.734;7.086;2023-08-17T10:27:03;20.60;;;10.97;;
68800;SDS011;55784;50.734;7.086;2023-08-17T10:29:30;16.88;;;9.73;;
68800;SDS011;55784;50.734;7.086;2023-08-17T10:31:57;16.13;;;9.13;;
68800;SDS011;55784;50.734;7.086;2023-08-17T10:34:25;17.77;;;10.50;;
68800;SDS011;55784;50.734;7.086;2023-08-17T10:36:51;17.05;;;10.15;;
68800;SDS011;55784;50.734;7.086;2023-08-17T10:39:21;21.13;;;12.63;;
68800;SDS011;55784;50.734;7.086;2023-08-17T10:41:50;14.85;;;8.55;;
68800;SDS011;55784;50.734;7.086;2023-08-17T10:47:18;13.82;;;8.00;;
68800;SDS011;55784;50.734;7.086;2023-08-17T10:52:28;15.10;;;9.17;;
68800;SDS011;55784;50.734;7.086;2023-08-17T10:54:56;13.35;;;8.20;;
68800;SDS011;55784;50.734;7.086;2023-08-17T10:57:35;14.20;;;8.27;;
68800;SDS011;55784;50.734;7.086;2023-08-17T11:02:45;13.80;;;8.43;;
68800;SDS011;55784;50.734;7.086;2023-08-17T11:05:11;12.40;;;7.90;;
68800;SDS011;55784;50.734;7.086;2023-08-17T11:07:44;14.18;;;7.93;;
68800;SDS011;55784;50.734;7.086;2023-08-17T11:12:43;14.43;;;8.73;;
68800;SDS011;55784;50.734;7.086;2023-08-17T11:15:09;17.30;;;9.33;;
68800;SDS011;55784;50.734;7.086;2023-08-17T11:17:35;14.10;;;8.27;;
68800;SDS011;55784;50.734;7.086;2023-08-17T11:20:01;14.17;;;8.40;;
68800;SDS011;55784;50.734;7.086;2023-08-17T11:22:27;14.00;;;8.52;;
68800;SDS011;55784;50.734;7.086;2023-08-17T11:24:52;20.33;;;11.48;;
68800;SDS011;55784;50.734;7.086;2023-08-17T11:27:18;16.13;;;10.23;;
68800;SDS011;55784;50.734;7.086;2023-08-17T11:29:44;13.65;;;8.25;;
68800;SDS011;55784;50.734;7.086;2023-08-17T11:32:10;15.73;;;10.07;;
68800;SDS011;55784;50.734;7.086;2023-08-17T11:34:36;18.10;;;10.55;;
68800;SDS011;55784;50.734;7.086;2023-08-17T11:37:01;16.57;;;9.43;;
68800;SDS011;55784;50.734;7.086;2023-08-17T11:39:27;17.48;;;10.70;;
68800;SDS011;55784;50.734;7.086;2023-08-17T11:41:52;17.30;;;10.23;;
68800;SDS011;55784;50.734;7.086;2023-08-17T11:44:18;19.40;;;12.50;;
68800;SDS011;55784;50.734;7.086;2023-08-17T11:46:46;22.15;;;12.20;;
68800;SDS011;55784;50.734;7.086;2023-08-17T11:49:12;20.90;;;12.83;;
68800;SDS011;55784;50.734;7.086;2023-08-17T11:51:38;24.80;;;14.10;;
68800;SDS011;55784;50.734;7.086;2023-08-17T11:54:04;21.23;;;13.20;;
68800;SDS011;55784;50.734;7.086;2023-08-17T11:56:32;22.42;;;14.10;;
68800;SDS011;55784;50.734;7.086;2023-08-17T11:59:08;22.97;;;13.50;;
68800;SDS011;55784;50.734;7.086;2023-08-17T12:01:36;23.80;;;13.93;;
68800;SDS011;55784;50.734;7.086;2023-08-17T12:04:03;21.25;;;12.82;;
68800;SDS011;55784;50.734;7.086;2023-08-17T12:06:30;26.85;;;15.13;;
68800;SDS011;55784;50.734;7.086;2023-08-17T12:08:56;22.67;;;13.13;;
68800;SDS011;55784;50.734;7.086;2023-08-17T12:11:23;22.65;;;13.50;;
68800;SDS011;55784;50.734;7.086;2023-08-17T12:13:50;25.07;;;14.63;;
68800;SDS011;55784;50.734;7.086;2023-08-17T12:16:16;22.95;;;13.50;;
68800;SDS011;55784;50.734;7.086;2023-08-17T12:18:49;24.48;;;14.95;;
68800;SDS011;55784;50.734;7.086;2023-08-17T12:21:21;23.67;;;13.27;;
68800;SDS011;55784;50.734;7.086;2023-08-17T12:23:47;22.08;;;13.82;;
68800;SDS011;55784;50.734;7.086;2023-08-17T12:26:20;21.53;;;12.70;;
68800;SDS011;55784;50.734;7.086;2023-08-17T12:28:46;24.00;;;14.50;;
68800;SDS011;55784;50.734;7.086;2023-08-17T12:31:12;21.98;;;12.70;;
68800;SDS011;55784;50.734;7.086;2023-08-17T12:33:46;25.58;;;14.68;;
68800;SDS011;55784;50.734;7.086;2023-08-17T12:36:11;23.00;;;14.13;;
68800;SDS011;55784;50.734;7.086;2023-08-17T12:38:42;21.08;;;12.95;;
68800;SDS011;55784;50.734;7.086;2023-08-17T12:41:29;21.40;;;12.45;;
68800;SDS011;55784;50.734;7.086;2023-08-17T12:43:54;22.23;;;13.30;;
68800;SDS011;55784;50.734;7.086;2023-08-17T12:46:19;23.50;;;13.40;;
68800;SDS011;55784;50.734;7.086;2023-08-17T12:48:45;22.73;;;13.20;;
68800;SDS011;55784;50.734;7.086;2023-08-17T12:51:13;21.27;;;12.85;;
68800;SDS011;55784;50.734;7.086;2023-08-17T12:53:39;20.80;;;12.83;;
68800;SDS011;55784;50.734;7.086;2023-08-17T12:56:07;19.70;;;12.73;;
68800;SDS011;55784;50.734;7.086;2023-08-17T12:58:32;23.98;;;15.02;;
68800;SDS011;55784;50.734;7.086;2023-08-17T13:01:02;23.57;;;14.70;;
68800;SDS011;55784;50.734;7.086;2023-08-17T13:03:39;22.25;;;13.98;;
68800;SDS011;55784;50.734;7.086;2023-08-17T13:06:04;21.17;;;13.88;;
68800;SDS011;55784;50.734;7.086;2023-08-17T13:08:30;21.57;;;13.97;;
68800;SDS011;55784;50.734;7.086;2023-08-17T13:10:56;22.77;;;14.07;;
68800;SDS011;55784;50.734;7.086;2023-08-17T13:13:22;23.17;;;14.33;;
68800;SDS011;55784;50.734;7.086;2023-08-17T13:15:47;25.40;;;14.60;;
68800;SDS011;55784;50.734;7.086;2023-08-17T13:18:13;21.80;;;14.23;;
68800;SDS011;55784;50.734;7.086;2023-08-17T13:20:38;24.25;;;14.77;;
68800;SDS011;55784;50.734;7.086;2023-08-17T13:23:05;25.10;;;15.23;;
68800;SDS011;55784;50.734;7.086;2023-08-17T13:25:31;22.85;;;15.05;;
68800;SDS011;55784;50.734;7.086;2023-08-17T13:27:56;21.37;;;13.10;;
68800;SDS011;55784;50.734;7.086;2023-08-17T13:30:22;21.83;;;13.70;;
68800;SDS011;55784;50.734;7.086;2023-08-17T13:32:47;22.45;;;13.80;;
68800;SDS011;55784;50.734;7.086;2023-08-17T13:35:13;23.97;;;13.57;;
68800;SDS011;55784;50.734;7.086;2023-08-17T13:37:44;23.00;;;12.75;;
68800;SDS011;55784;50.734;7.086;2023-08-17T13:40:24;23.50;;;13.40;;
68800;SDS011;55784;50.734;7.086;2023-08-17T13:42:56;22.00;;;13.73;;
68800;SDS011;55784;50.734;7.086;2023-08-17T13:45:23;21.33;;;13.50;;
68800;SDS011;55784;50.734;7.086;2023-08-17T13:48:09;21.83;;;13.70;;
68800;SDS011;55784;50.734;7.086;2023-08-17T13:50:37;20.92;;;13.43;;
68800;SDS011;55784;50.734;7.086;2023-08-17T13:53:06;20.98;;;13.30;;
68800;SDS011;55784;50.734;7.086;2023-08-17T13:55:32;21.07;;;13.10;;
68800;SDS011;55784;50.734;7.086;2023-08-17T13:58:00;20.25;;;12.65;;
68800;SDS011;55784;50.734;7.086;2023-08-17T14:00:26;20.07;;;12.83;;
68800;SDS011;55784;50.734;7.086;2023-08-17T14:02:52;21.80;;;12.10;;
68800;SDS011;55784;50.734;7.086;2023-08-17T14:05:18;20.27;;;12.82;;
68800;SDS011;55784;50.734;7.086;2023-08-17T14:07:49;17.92;;;11.25;;
68800;SDS011;55784;50.734;7.086;2023-08-17T14:10:23;17.57;;;11.40;;
68800;SDS011;55784;50.734;7.086;2023-08-17T14:12:54;16.92;;;11.20;;
68800;SDS011;55784;50.734;7.086;2023-08-17T14:15:23;17.67;;;10.97;;
68800;SDS011;55784;50.734;7.086;2023-08-17T14:17:49;16.58;;;9.55;;
68800;SDS011;55784;50.734;7.086;2023-08-17T14:20:18;14.40;;;8.77;;
68800;SDS011;55784;50.734;7.086;2023-08-17T14:22:43;15.48;;;8.77;;
68800;SDS011;55784;50.734;7.086;2023-08-17T14:25:11;15.68;;;9.38;;
68800;SDS011;55784;50.734;7.086;2023-08-17T14:27:44;15.83;;;10.00;;
68800;SDS011;55784;50.734;7.086;2023-08-17T14:30:15;17.67;;;10.98;;
68800;SDS011;55784;50.734;7.086;2023-08-17T14:32:58;15.90;;;10.05;;
68800;SDS011;55784;50.734;7.086;2023-08-17T14:35:27;17.05;;;10.00;;
68800;SDS011;55784;50.734;7.086;2023-08-17T14:38:11;16.65;;;10.15;;
68800;SDS011;55784;50.734;7.086;2023-08-17T14:40:45;16.90;;;10.90;;
68800;SDS011;55784;50.734;7.086;2023-08-17T14:43:21;15.52;;;9.20;;